sensor_id;sensor_type;location;lat;lon;timestamp;temperature;humidity
25092;DHT22;13082;52.374;4.946;2022-12-18T00:01:59;-1.80;99.90
25092;DHT22;13082;52.374;4.946;2022-12-18T00:04:26;-1.70;99.90
25092;DHT22;13082;52.374;4.946;2022-12-18T00:06:52;-1.70;99.90
25092;DHT22;13082;52.374;4.946;2022-12-18T00:09:18;-1.70;99.90
25092;DHT22;13082;52.374;4.946;2022-12-18T00:11:44;-1.80;99.90
25092;DHT22;13082;52.374;4.946;2022-12-18T00:14:13;-1.80;99.90
25092;DHT22;13082;52.374;4.946;2022-12-18T00:16:42;-1.80;99.90
25092;DHT22;13082;52.374;4.946;2022-12-18T00:19:10;-1.70;99.90
25092;DHT22;13082;52.374;4.946;2022-12-18T00:21:36;-1.70;99.90
25092;DHT22;13082;52.374;4.946;2022-12-18T00:24:01;-1.70;99.90
25092;DHT22;13082;52.374;4.946;2022-12-18T00:26:32;-1.70;99.90
25092;DHT22;13082;52.374;4.946;2022-12-18T00:29:03;-1.70;99.90
25092;DHT22;13082;52.374;4.946;2022-12-18T00:31:29;-1.80;99.90
25092;DHT22;13082;52.374;4.946;2022-12-18T00:33:56;-1.80;99.90
25092;DHT22;13082;52.374;4.946;2022-12-18T00:36:24;-1.80;99.90
25092;DHT22;13082;52.374;4.946;2022-12-18T00:38:51;-1.80;99.90
25092;DHT22;13082;52.374;4.946;2022-12-18T00:41:18;-1.70;99.90
25092;DHT22;13082;52.374;4.946;2022-12-18T00:44:03;-1.70;99.90
25092;DHT22;13082;52.374;4.946;2022-12-18T00:46:29;-1.80;99.90
25092;DHT22;13082;52.374;4.946;2022-12-18T00:48:55;-1.80;99.90
25092;DHT22;13082;52.374;4.946;2022-12-18T00:51:20;-1.80;99.90
25092;DHT22;13082;52.374;4.946;2022-12-18T00:53:46;-1.90;99.90
25092;DHT22;13082;52.374;4.946;2022-12-18T00:56:12;-1.90;99.90
25092;DHT22;13082;52.374;4.946;2022-12-18T00:58:37;-1.80;99.90
25092;DHT22;13082;52.374;4.946;2022-12-18T01:01:07;-1.90;99.90
25092;DHT22;13082;52.374;4.946;2022-12-18T01:03:32;-1.90;99.90
25092;DHT22;13082;52.374;4.946;2022-12-18T01:05:58;-2.00;99.90
25092;DHT22;13082;52.374;4.946;2022-12-18T01:08:24;-2.10;99.90
25092;DHT22;13082;52.374;4.946;2022-12-18T01:10:49;-2.00;99.90
25092;DHT22;13082;52.374;4.946;2022-12-18T01:13:15;-1.90;99.90
25092;DHT22;13082;52.374;4.946;2022-12-18T01:15:47;-1.90;99.90
25092;DHT22;13082;52.374;4.946;2022-12-18T01:18:12;-2.00;99.90
25092;DHT22;13082;52.374;4.946;2022-12-18T01:20:38;-2.10;99.90
25092;DHT22;13082;52.374;4.946;2022-12-18T01:23:03;-2.10;99.90
25092;DHT22;13082;52.374;4.946;2022-12-18T01:25:29;-2.20;99.90
25092;DHT22;13082;52.374;4.946;2022-12-18T01:27:54;-2.20;99.90
25092;DHT22;13082;52.374;4.946;2022-12-18T01:30:20;-2.20;99.90
25092;DHT22;13082;52.374;4.946;2022-12-18T01:32:46;-2.20;99.90
25092;DHT22;13082;52.374;4.946;2022-12-18T01:35:11;-2.10;99.90
25092;DHT22;13082;52.374;4.946;2022-12-18T01:37:37;-2.10;99.90
25092;DHT22;13082;52.374;4.946;2022-12-18T01:40:03;-2.00;99.90
25092;DHT22;13082;52.374;4.946;2022-12-18T01:42:29;-2.00;99.90
25092;DHT22;13082;52.374;4.946;2022-12-18T01:45:04;-1.90;99.90
25092;DHT22;13082;52.374;4.946;2022-12-18T01:47:32;-2.00;99.90
25092;DHT22;13082;52.374;4.946;2022-12-18T01:50:03;-2.10;99.90
25092;DHT22;13082;52.374;4.946;2022-12-18T01:52:31;-2.10;99.90
25092;DHT22;13082;52.374;4.946;2022-12-18T01:54:57;-2.00;99.90
25092;DHT22;13082;52.374;4.946;2022-12-18T01:57:25;-2.10;99.90
25092;DHT22;13082;52.374;4.946;2022-12-18T01:59:53;-2.10;99.90
25092;DHT22;13082;52.374;4.946;2022-12-18T02:02:20;-2.20;99.90
25092;DHT22;13082;52.374;4.946;2022-12-18T02:04:46;-2.20;99.90
25092;DHT22;13082;52.374;4.946;2022-12-18T02:10:13;-2.10;99.90
25092;DHT22;13082;52.374;4.946;2022-12-18T02:13:04;-2.10;99.90
25092;DHT22;13082;52.374;4.946;2022-12-18T02:15:53;-2.10;99.90
25092;DHT22;13082;52.374;4.946;2022-12-18T02:18:24;-2.10;99.90
25092;DHT22;13082;52.374;4.946;2022-12-18T02:31:39;-2.30;99.90
25092;DHT22;13082;52.374;4.946;2022-12-18T02:34:07;-2.40;99.90
25092;DHT22;13082;52.374;4.946;2022-12-18T02:36:34;-2.50;99.90
25092;DHT22;13082;52.374;4.946;2022-12-18T02:39:01;-2.40;99.90
25092;DHT22;13082;52.374;4.946;2022-12-18T02:41:28;-2.40;99.90
25092;DHT22;13082;52.374;4.946;2022-12-18T02:44:01;-2.40;99.90
25092;DHT22;13082;52.374;4.946;2022-12-18T02:52:07;-2.70;99.90
25092;DHT22;13082;52.374;4.946;2022-12-18T03:02:48;-2.80;99.90
25092;DHT22;13082;52.374;4.946;2022-12-18T03:05:29;-2.80;99.90
25092;DHT22;13082;52.374;4.946;2022-12-18T03:08:00;-2.70;99.90
25092;DHT22;13082;52.374;4.946;2022-12-18T03:10:30;-2.60;99.90
25092;DHT22;13082;52.374;4.946;2022-12-18T03:13:18;-2.60;99.90
25092;DHT22;13082;52.374;4.946;2022-12-18T03:15:48;-2.70;99.90
25092;DHT22;13082;52.374;4.946;2022-12-18T03:18:29;-2.80;99.90
25092;DHT22;13082;52.374;4.946;2022-12-18T03:20:59;-2.80;99.90
25092;DHT22;13082;52.374;4.946;2022-12-18T03:23:29;-2.90;99.90
25092;DHT22;13082;52.374;4.946;2022-12-18T03:26:00;-2.80;99.90
25092;DHT22;13082;52.374;4.946;2022-12-18T03:28:28;-2.80;99.90
25092;DHT22;13082;52.374;4.946;2022-12-18T03:30:58;-2.80;99.90
25092;DHT22;13082;52.374;4.946;2022-12-18T03:33:55;-2.80;99.90
25092;DHT22;13082;52.374;4.946;2022-12-18T03:36:21;-2.80;99.90
25092;DHT22;13082;52.374;4.946;2022-12-18T03:38:48;-2.80;99.90
25092;DHT22;13082;52.374;4.946;2022-12-18T03:44:05;-2.60;99.90
25092;DHT22;13082;52.374;4.946;2022-12-18T03:49:25;-2.50;99.90
25092;DHT22;13082;52.374;4.946;2022-12-18T03:54:48;-2.50;99.90
25092;DHT22;13082;52.374;4.946;2022-12-18T03:57:20;-2.50;99.90
25092;DHT22;13082;52.374;4.946;2022-12-18T03:59:49;-2.50;99.90
25092;DHT22;13082;52.374;4.946;2022-12-18T04:02:17;-2.60;99.90
25092;DHT22;13082;52.374;4.946;2022-12-18T04:04:43;-2.60;99.90
25092;DHT22;13082;52.374;4.946;2022-12-18T04:07:10;-2.60;99.90
25092;DHT22;13082;52.374;4.946;2022-12-18T04:09:38;-2.70;99.90
25092;DHT22;13082;52.374;4.946;2022-12-18T04:12:04;-2.70;99.90
25092;DHT22;13082;52.374;4.946;2022-12-18T04:14:30;-2.70;99.90
25092;DHT22;13082;52.374;4.946;2022-12-18T04:16:55;-2.80;99.90
25092;DHT22;13082;52.374;4.946;2022-12-18T04:19:21;-2.80;99.90
25092;DHT22;13082;52.374;4.946;2022-12-18T04:21:46;-2.90;99.90
25092;DHT22;13082;52.374;4.946;2022-12-18T04:24:12;-3.00;99.90
25092;DHT22;13082;52.374;4.946;2022-12-18T04:26:37;-2.90;99.90
25092;DHT22;13082;52.374;4.946;2022-12-18T04:29:03;-2.90;99.90
25092;DHT22;13082;52.374;4.946;2022-12-18T04:31:29;-2.90;99.90
25092;DHT22;13082;52.374;4.946;2022-12-18T04:33:55;-2.80;99.90
25092;DHT22;13082;52.374;4.946;2022-12-18T04:36:20;-2.80;99.90
25092;DHT22;13082;52.374;4.946;2022-12-18T04:38:46;-2.70;99.90
25092;DHT22;13082;52.374;4.946;2022-12-18T04:41:12;-2.70;99.90
25092;DHT22;13082;52.374;4.946;2022-12-18T04:43:37;-2.60;99.90
25092;DHT22;13082;52.374;4.946;2022-12-18T04:46:07;-2.60;99.90
25092;DHT22;13082;52.374;4.946;2022-12-18T04:48:33;-2.60;99.90
25092;DHT22;13082;52.374;4.946;2022-12-18T04:50:59;-2.70;99.90
25092;DHT22;13082;52.374;4.946;2022-12-18T04:53:24;-2.60;99.90
25092;DHT22;13082;52.374;4.946;2022-12-18T04:55:50;-2.60;99.90
25092;DHT22;13082;52.374;4.946;2022-12-18T04:58:16;-2.50;99.90
25092;DHT22;13082;52.374;4.946;2022-12-18T05:00:41;-2.60;99.90
25092;DHT22;13082;52.374;4.946;2022-12-18T05:03:07;-2.50;99.90
25092;DHT22;13082;52.374;4.946;2022-12-18T05:05:35;-2.50;99.90
25092;DHT22;13082;52.374;4.946;2022-12-18T05:08:00;-2.60;99.90
25092;DHT22;13082;52.374;4.946;2022-12-18T05:10:26;-2.60;99.90
25092;DHT22;13082;52.374;4.946;2022-12-18T05:12:51;-2.60;99.90
25092;DHT22;13082;52.374;4.946;2022-12-18T05:15:24;-2.70;99.90
25092;DHT22;13082;52.374;4.946;2022-12-18T05:17:50;-2.70;99.90
25092;DHT22;13082;52.374;4.946;2022-12-18T05:20:15;-2.80;99.90
25092;DHT22;13082;52.374;4.946;2022-12-18T05:22:41;-2.80;99.90
25092;DHT22;13082;52.374;4.946;2022-12-18T05:25:07;-2.70;99.90
25092;DHT22;13082;52.374;4.946;2022-12-18T05:27:32;-2.80;99.90
25092;DHT22;13082;52.374;4.946;2022-12-18T05:29:58;-2.80;99.90
25092;DHT22;13082;52.374;4.946;2022-12-18T05:32:24;-2.80;99.90
25092;DHT22;13082;52.374;4.946;2022-12-18T05:34:49;-2.90;99.90
25092;DHT22;13082;52.374;4.946;2022-12-18T05:37:15;-2.90;99.90
25092;DHT22;13082;52.374;4.946;2022-12-18T05:39:40;-2.80;99.90
25092;DHT22;13082;52.374;4.946;2022-12-18T05:42:06;-2.90;99.90
25092;DHT22;13082;52.374;4.946;2022-12-18T05:44:31;-2.90;99.90
25092;DHT22;13082;52.374;4.946;2022-12-18T05:46:57;-2.90;99.90
25092;DHT22;13082;52.374;4.946;2022-12-18T05:49:23;-3.00;99.90
25092;DHT22;13082;52.374;4.946;2022-12-18T05:51:48;-3.10;99.90
25092;DHT22;13082;52.374;4.946;2022-12-18T05:54:14;-3.20;99.90
25092;DHT22;13082;52.374;4.946;2022-12-18T05:56:39;-3.20;99.90
25092;DHT22;13082;52.374;4.946;2022-12-18T05:59:05;-3.20;99.90
25092;DHT22;13082;52.374;4.946;2022-12-18T06:01:31;-3.30;99.90
25092;DHT22;13082;52.374;4.946;2022-12-18T06:03:56;-3.40;99.90
25092;DHT22;13082;52.374;4.946;2022-12-18T06:06:24;-3.40;99.90
25092;DHT22;13082;52.374;4.946;2022-12-18T06:08:51;-3.40;99.90
25092;DHT22;13082;52.374;4.946;2022-12-18T06:11:20;-3.40;99.90
25092;DHT22;13082;52.374;4.946;2022-12-18T06:13:46;-3.40;99.90
25092;DHT22;13082;52.374;4.946;2022-12-18T06:16:12;-3.40;99.90
25092;DHT22;13082;52.374;4.946;2022-12-18T06:18:38;-3.40;99.90
25092;DHT22;13082;52.374;4.946;2022-12-18T06:21:04;-3.30;99.90
25092;DHT22;13082;52.374;4.946;2022-12-18T06:23:29;-3.40;99.90
25092;DHT22;13082;52.374;4.946;2022-12-18T06:25:55;-3.40;99.90
25092;DHT22;13082;52.374;4.946;2022-12-18T06:28:20;-3.40;99.90
25092;DHT22;13082;52.374;4.946;2022-12-18T06:30:49;-3.40;99.90
25092;DHT22;13082;52.374;4.946;2022-12-18T06:33:15;-3.50;99.90
25092;DHT22;13082;52.374;4.946;2022-12-18T06:35:41;-3.50;99.90
25092;DHT22;13082;52.374;4.946;2022-12-18T06:38:07;-3.50;99.90
25092;DHT22;13082;52.374;4.946;2022-12-18T06:40:33;-3.60;99.90
25092;DHT22;13082;52.374;4.946;2022-12-18T06:42:59;-3.60;99.90
25092;DHT22;13082;52.374;4.946;2022-12-18T06:45:24;-3.60;99.90
25092;DHT22;13082;52.374;4.946;2022-12-18T06:47:50;-3.60;99.90
25092;DHT22;13082;52.374;4.946;2022-12-18T06:50:16;-3.60;99.90
25092;DHT22;13082;52.374;4.946;2022-12-18T06:52:41;-3.60;99.90
25092;DHT22;13082;52.374;4.946;2022-12-18T06:55:09;-3.60;99.90
25092;DHT22;13082;52.374;4.946;2022-12-18T06:57:36;-3.60;99.90
25092;DHT22;13082;52.374;4.946;2022-12-18T07:00:03;-3.60;99.90
25092;DHT22;13082;52.374;4.946;2022-12-18T07:02:29;-3.70;99.90
25092;DHT22;13082;52.374;4.946;2022-12-18T07:04:54;-3.70;99.90
25092;DHT22;13082;52.374;4.946;2022-12-18T07:07:20;-3.60;99.90
25092;DHT22;13082;52.374;4.946;2022-12-18T07:09:45;-3.60;99.90
25092;DHT22;13082;52.374;4.946;2022-12-18T07:12:11;-3.60;99.90
25092;DHT22;13082;52.374;4.946;2022-12-18T07:14:36;-3.60;99.90
25092;DHT22;13082;52.374;4.946;2022-12-18T07:17:02;-3.60;99.90
25092;DHT22;13082;52.374;4.946;2022-12-18T07:19:28;-3.60;99.90
25092;DHT22;13082;52.374;4.946;2022-12-18T07:21:54;-3.60;99.90
25092;DHT22;13082;52.374;4.946;2022-12-18T07:24:20;-3.60;99.90
25092;DHT22;13082;52.374;4.946;2022-12-18T07:26:46;-3.60;99.90
25092;DHT22;13082;52.374;4.946;2022-12-18T07:29:12;-3.60;99.90
25092;DHT22;13082;52.374;4.946;2022-12-18T07:31:39;-3.50;99.90
25092;DHT22;13082;52.374;4.946;2022-12-18T07:34:05;-3.50;99.90
25092;DHT22;13082;52.374;4.946;2022-12-18T07:36:30;-3.50;99.90
25092;DHT22;13082;52.374;4.946;2022-12-18T07:38:56;-3.50;99.90
25092;DHT22;13082;52.374;4.946;2022-12-18T07:41:21;-3.50;99.90
25092;DHT22;13082;52.374;4.946;2022-12-18T07:43:48;-3.60;99.90
25092;DHT22;13082;52.374;4.946;2022-12-18T07:46:15;-3.60;99.90
25092;DHT22;13082;52.374;4.946;2022-12-18T07:48:41;-3.60;99.90
25092;DHT22;13082;52.374;4.946;2022-12-18T07:51:08;-3.60;99.90
25092;DHT22;13082;52.374;4.946;2022-12-18T07:53:34;-3.60;99.90
25092;DHT22;13082;52.374;4.946;2022-12-18T07:56:03;-3.60;99.90
25092;DHT22;13082;52.374;4.946;2022-12-18T07:58:30;-3.60;99.90
25092;DHT22;13082;52.374;4.946;2022-12-18T08:01:10;-3.50;99.90
25092;DHT22;13082;52.374;4.946;2022-12-18T08:03:36;-3.50;99.90
25092;DHT22;13082;52.374;4.946;2022-12-18T08:06:04;-3.50;99.90
25092;DHT22;13082;52.374;4.946;2022-12-18T08:08:30;-3.40;99.90
25092;DHT22;13082;52.374;4.946;2022-12-18T08:10:56;-3.40;99.90
25092;DHT22;13082;52.374;4.946;2022-12-18T08:13:22;-3.30;99.90
25092;DHT22;13082;52.374;4.946;2022-12-18T08:15:58;-3.30;99.90
25092;DHT22;13082;52.374;4.946;2022-12-18T08:18:24;-3.20;99.90
25092;DHT22;13082;52.374;4.946;2022-12-18T08:20:50;-3.30;99.90
25092;DHT22;13082;52.374;4.946;2022-12-18T08:23:16;-3.30;99.90
25092;DHT22;13082;52.374;4.946;2022-12-18T08:25:42;-3.30;99.90
25092;DHT22;13082;52.374;4.946;2022-12-18T08:28:07;-3.30;99.90
25092;DHT22;13082;52.374;4.946;2022-12-18T08:30:33;-3.30;99.90
25092;DHT22;13082;52.374;4.946;2022-12-18T08:32:58;-3.40;99.90
25092;DHT22;13082;52.374;4.946;2022-12-18T08:35:24;-3.40;99.90
25092;DHT22;13082;52.374;4.946;2022-12-18T08:37:50;-3.40;99.90
25092;DHT22;13082;52.374;4.946;2022-12-18T08:40:15;-3.30;99.90
25092;DHT22;13082;52.374;4.946;2022-12-18T08:42:41;-3.30;99.90
25092;DHT22;13082;52.374;4.946;2022-12-18T08:45:25;-3.30;99.90
25092;DHT22;13082;52.374;4.946;2022-12-18T08:47:51;-3.30;99.90
25092;DHT22;13082;52.374;4.946;2022-12-18T08:50:17;-3.20;99.90
25092;DHT22;13082;52.374;4.946;2022-12-18T08:52:42;-3.20;99.90
25092;DHT22;13082;52.374;4.946;2022-12-18T08:55:08;-3.20;99.90
25092;DHT22;13082;52.374;4.946;2022-12-18T08:57:34;-3.10;99.90
25092;DHT22;13082;52.374;4.946;2022-12-18T09:00:00;-3.10;99.90
25092;DHT22;13082;52.374;4.946;2022-12-18T09:02:25;-3.10;99.90
25092;DHT22;13082;52.374;4.946;2022-12-18T09:04:51;-3.10;99.90
25092;DHT22;13082;52.374;4.946;2022-12-18T09:07:16;-3.10;99.90
25092;DHT22;13082;52.374;4.946;2022-12-18T09:09:42;-3.00;99.90
25092;DHT22;13082;52.374;4.946;2022-12-18T09:12:08;-2.90;99.90
25092;DHT22;13082;52.374;4.946;2022-12-18T09:14:34;-2.90;99.90
25092;DHT22;13082;52.374;4.946;2022-12-18T09:16:59;-2.90;99.90
25092;DHT22;13082;52.374;4.946;2022-12-18T09:19:25;-2.90;99.90
25092;DHT22;13082;52.374;4.946;2022-12-18T09:21:51;-2.90;99.90
25092;DHT22;13082;52.374;4.946;2022-12-18T09:24:16;-2.90;99.90
25092;DHT22;13082;52.374;4.946;2022-12-18T09:26:42;-2.90;99.90
25092;DHT22;13082;52.374;4.946;2022-12-18T09:29:08;-2.80;99.90
25092;DHT22;13082;52.374;4.946;2022-12-18T09:31:35;-2.80;99.90
25092;DHT22;13082;52.374;4.946;2022-12-18T09:34:01;-2.90;99.90
25092;DHT22;13082;52.374;4.946;2022-12-18T09:36:26;-2.80;99.90
25092;DHT22;13082;52.374;4.946;2022-12-18T09:38:52;-2.80;99.90
25092;DHT22;13082;52.374;4.946;2022-12-18T09:44:31;-2.90;99.90
25092;DHT22;13082;52.374;4.946;2022-12-18T09:49:36;-2.80;99.90
25092;DHT22;13082;52.374;4.946;2022-12-18T09:52:05;-2.80;99.90
25092;DHT22;13082;52.374;4.946;2022-12-18T09:54:40;-2.80;99.90
25092;DHT22;13082;52.374;4.946;2022-12-18T09:57:12;-2.70;99.90
25092;DHT22;13082;52.374;4.946;2022-12-18T09:59:39;-2.70;99.90
25092;DHT22;13082;52.374;4.946;2022-12-18T10:02:24;-2.60;99.90
25092;DHT22;13082;52.374;4.946;2022-12-18T10:05:10;-2.60;99.90
25092;DHT22;13082;52.374;4.946;2022-12-18T10:10:27;-2.60;99.90
25092;DHT22;13082;52.374;4.946;2022-12-18T10:15:34;-2.40;99.90
25092;DHT22;13082;52.374;4.946;2022-12-18T10:20:51;-2.40;99.90
25092;DHT22;13082;52.374;4.946;2022-12-18T10:26:08;-2.30;99.90
25092;DHT22;13082;52.374;4.946;2022-12-18T10:28:36;-2.30;99.90
25092;DHT22;13082;52.374;4.946;2022-12-18T10:31:12;-2.20;99.90
25092;DHT22;13082;52.374;4.946;2022-12-18T10:33:41;-2.20;99.90
25092;DHT22;13082;52.374;4.946;2022-12-18T10:36:07;-2.10;99.90
25092;DHT22;13082;52.374;4.946;2022-12-18T10:38:33;-2.10;99.90
25092;DHT22;13082;52.374;4.946;2022-12-18T10:41:04;-2.00;99.90
25092;DHT22;13082;52.374;4.946;2022-12-18T10:48:39;-2.00;99.90
25092;DHT22;13082;52.374;4.946;2022-12-18T10:51:06;-2.00;99.90
25092;DHT22;13082;52.374;4.946;2022-12-18T10:53:34;-2.00;99.90
25092;DHT22;13082;52.374;4.946;2022-12-18T10:56:02;-1.90;99.90
25092;DHT22;13082;52.374;4.946;2022-12-18T10:58:34;-1.90;99.90
25092;DHT22;13082;52.374;4.946;2022-12-18T11:01:12;-1.90;99.90
25092;DHT22;13082;52.374;4.946;2022-12-18T11:03:46;-1.80;99.90
25092;DHT22;13082;52.374;4.946;2022-12-18T11:06:19;-1.80;99.90
25092;DHT22;13082;52.374;4.946;2022-12-18T11:09:03;-1.80;99.90
25092;DHT22;13082;52.374;4.946;2022-12-18T11:11:29;-1.70;99.90
25092;DHT22;13082;52.374;4.946;2022-12-18T11:14:05;-1.80;99.90
25092;DHT22;13082;52.374;4.946;2022-12-18T11:16:36;-1.70;99.90
25092;DHT22;13082;52.374;4.946;2022-12-18T11:19:23;-1.70;99.90
25092;DHT22;13082;52.374;4.946;2022-12-18T11:21:50;-1.70;99.90
25092;DHT22;13082;52.374;4.946;2022-12-18T11:24:24;-1.60;99.90
25092;DHT22;13082;52.374;4.946;2022-12-18T11:26:51;-1.60;99.90
25092;DHT22;13082;52.374;4.946;2022-12-18T11:29:33;-1.50;99.90
25092;DHT22;13082;52.374;4.946;2022-12-18T11:32:35;-1.50;99.90
25092;DHT22;13082;52.374;4.946;2022-12-18T11:37:34;-1.40;99.90
25092;DHT22;13082;52.374;4.946;2022-12-18T11:40:17;-1.40;99.90
25092;DHT22;13082;52.374;4.946;2022-12-18T11:45:29;-1.20;99.90
25092;DHT22;13082;52.374;4.946;2022-12-18T11:48:01;-1.20;99.90
25092;DHT22;13082;52.374;4.946;2022-12-18T11:53:02;-1.20;99.90
25092;DHT22;13082;52.374;4.946;2022-12-18T11:55:41;-1.20;99.90
25092;DHT22;13082;52.374;4.946;2022-12-18T12:04:07;-1.10;99.90
25092;DHT22;13082;52.374;4.946;2022-12-18T12:07:06;-1.10;99.90
25092;DHT22;13082;52.374;4.946;2022-12-18T12:17:54;-1.00;99.90
25092;DHT22;13082;52.374;4.946;2022-12-18T12:23:14;-0.90;99.90
25092;DHT22;13082;52.374;4.946;2022-12-18T12:25:49;-0.80;99.90
25092;DHT22;13082;52.374;4.946;2022-12-18T12:31:59;-0.80;99.90
25092;DHT22;13082;52.374;4.946;2022-12-18T12:34:48;-0.70;99.90
25092;DHT22;13082;52.374;4.946;2022-12-18T12:40:05;-0.80;99.90
25092;DHT22;13082;52.374;4.946;2022-12-18T12:42:37;-0.70;99.90
25092;DHT22;13082;52.374;4.946;2022-12-18T12:45:36;-0.70;99.90
25092;DHT22;13082;52.374;4.946;2022-12-18T12:48:06;-0.70;99.90
25092;DHT22;13082;52.374;4.946;2022-12-18T12:50:37;-0.70;99.90
25092;DHT22;13082;52.374;4.946;2022-12-18T12:53:08;-0.60;99.90
25092;DHT22;13082;52.374;4.946;2022-12-18T12:55:34;-0.60;99.90
25092;DHT22;13082;52.374;4.946;2022-12-18T12:58:36;-0.60;99.90
25092;DHT22;13082;52.374;4.946;2022-12-18T13:09:14;-0.60;99.90
25092;DHT22;13082;52.374;4.946;2022-12-18T13:11:42;-0.50;99.90
25092;DHT22;13082;52.374;4.946;2022-12-18T13:14:36;-0.50;99.90
25092;DHT22;13082;52.374;4.946;2022-12-18T13:19:51;-0.50;99.90
25092;DHT22;13082;52.374;4.946;2022-12-18T13:22:28;-0.50;99.90
25092;DHT22;13082;52.374;4.946;2022-12-18T13:24:54;-0.50;99.90
25092;DHT22;13082;52.374;4.946;2022-12-18T13:35:41;-0.40;99.90
25092;DHT22;13082;52.374;4.946;2022-12-18T13:38:33;-0.40;99.90
25092;DHT22;13082;52.374;4.946;2022-12-18T13:41:25;-0.40;99.90
25092;DHT22;13082;52.374;4.946;2022-12-18T13:43:52;-0.40;99.90
25092;DHT22;13082;52.374;4.946;2022-12-18T13:46:30;-0.30;99.90
25092;DHT22;13082;52.374;4.946;2022-12-18T13:49:40;-0.30;99.90
25092;DHT22;13082;52.374;4.946;2022-12-18T13:52:22;-0.30;99.90
25092;DHT22;13082;52.374;4.946;2022-12-18T13:54:53;-0.30;99.90
25092;DHT22;13082;52.374;4.946;2022-12-18T13:57:32;-0.30;99.90
25092;DHT22;13082;52.374;4.946;2022-12-18T14:00:16;-0.30;99.90
25092;DHT22;13082;52.374;4.946;2022-12-18T14:02:45;-0.30;99.90
25092;DHT22;13082;52.374;4.946;2022-12-18T14:05:32;-0.20;99.90
25092;DHT22;13082;52.374;4.946;2022-12-18T14:08:05;-0.20;99.90
25092;DHT22;13082;52.374;4.946;2022-12-18T14:10:31;-0.20;99.90
25092;DHT22;13082;52.374;4.946;2022-12-18T14:13:03;-0.20;99.90
25092;DHT22;13082;52.374;4.946;2022-12-18T14:15:41;-0.20;99.90
25092;DHT22;13082;52.374;4.946;2022-12-18T14:20:53;-0.20;99.90
25092;DHT22;13082;52.374;4.946;2022-12-18T14:23:36;-0.20;99.90
25092;DHT22;13082;52.374;4.946;2022-12-18T14:26:19;-0.10;99.90
25092;DHT22;13082;52.374;4.946;2022-12-18T14:28:45;-0.10;99.90
25092;DHT22;13082;52.374;4.946;2022-12-18T14:31:19;-0.10;99.90
25092;DHT22;13082;52.374;4.946;2022-12-18T14:33:45;-0.10;99.90
25092;DHT22;13082;52.374;4.946;2022-12-18T14:36:24;-0.10;99.90
25092;DHT22;13082;52.374;4.946;2022-12-18T14:38:57;0.00;99.90
25092;DHT22;13082;52.374;4.946;2022-12-18T14:41:24;0.00;99.90
25092;DHT22;13082;52.374;4.946;2022-12-18T14:43:52;0.00;99.90
25092;DHT22;13082;52.374;4.946;2022-12-18T14:46:38;0.00;99.90
25092;DHT22;13082;52.374;4.946;2022-12-18T14:49:24;0.00;99.90
25092;DHT22;13082;52.374;4.946;2022-12-18T14:51:56;0.00;99.90
25092;DHT22;13082;52.374;4.946;2022-12-18T14:54:23;0.00;99.90
25092;DHT22;13082;52.374;4.946;2022-12-18T14:56:51;0.00;99.90
25092;DHT22;13082;52.374;4.946;2022-12-18T14:59:23;0.10;99.90
25092;DHT22;13082;52.374;4.946;2022-12-18T15:04:41;0.10;99.90
25092;DHT22;13082;52.374;4.946;2022-12-18T15:10:23;0.10;99.90
25092;DHT22;13082;52.374;4.946;2022-12-18T15:17:59;0.10;99.90
25092;DHT22;13082;52.374;4.946;2022-12-18T15:20:27;0.20;99.90
25092;DHT22;13082;52.374;4.946;2022-12-18T15:22:53;0.20;99.90
25092;DHT22;13082;52.374;4.946;2022-12-18T15:25:37;0.20;99.90
25092;DHT22;13082;52.374;4.946;2022-12-18T15:28:15;0.20;99.90
25092;DHT22;13082;52.374;4.946;2022-12-18T15:36:23;0.20;99.90
25092;DHT22;13082;52.374;4.946;2022-12-18T15:38:50;0.20;99.90
25092;DHT22;13082;52.374;4.946;2022-12-18T15:41:18;0.20;99.90
25092;DHT22;13082;52.374;4.946;2022-12-18T15:43:46;0.30;99.90
25092;DHT22;13082;52.374;4.946;2022-12-18T15:46:17;0.30;99.90
25092;DHT22;13082;52.374;4.946;2022-12-18T15:48:45;0.30;99.90
25092;DHT22;13082;52.374;4.946;2022-12-18T15:51:17;0.30;99.90
25092;DHT22;13082;52.374;4.946;2022-12-18T15:53:43;0.40;99.90
25092;DHT22;13082;52.374;4.946;2022-12-18T15:56:19;0.30;99.90
25092;DHT22;13082;52.374;4.946;2022-12-18T15:59:30;0.40;99.90
25092;DHT22;13082;52.374;4.946;2022-12-18T16:01:56;0.40;99.90
25092;DHT22;13082;52.374;4.946;2022-12-18T16:04:22;0.40;99.90
25092;DHT22;13082;52.374;4.946;2022-12-18T16:06:49;0.40;99.90
25092;DHT22;13082;52.374;4.946;2022-12-18T16:09:15;0.50;99.90
25092;DHT22;13082;52.374;4.946;2022-12-18T16:11:42;0.50;99.90
25092;DHT22;13082;52.374;4.946;2022-12-18T16:16:39;0.50;99.90
25092;DHT22;13082;52.374;4.946;2022-12-18T16:19:05;0.50;99.90
25092;DHT22;13082;52.374;4.946;2022-12-18T16:21:30;0.50;99.90
25092;DHT22;13082;52.374;4.946;2022-12-18T16:23:56;0.50;99.90
25092;DHT22;13082;52.374;4.946;2022-12-18T16:26:21;0.50;99.90
25092;DHT22;13082;52.374;4.946;2022-12-18T16:28:47;0.50;99.90
25092;DHT22;13082;52.374;4.946;2022-12-18T16:31:13;0.60;99.90
25092;DHT22;13082;52.374;4.946;2022-12-18T16:33:38;0.60;99.90
25092;DHT22;13082;52.374;4.946;2022-12-18T16:36:04;0.60;99.90
25092;DHT22;13082;52.374;4.946;2022-12-18T16:38:29;0.60;99.90
25092;DHT22;13082;52.374;4.946;2022-12-18T16:40:55;0.60;99.90
25092;DHT22;13082;52.374;4.946;2022-12-18T16:43:40;0.60;99.90
25092;DHT22;13082;52.374;4.946;2022-12-18T16:46:05;0.70;99.90
25092;DHT22;13082;52.374;4.946;2022-12-18T16:48:31;0.70;99.90
25092;DHT22;13082;52.374;4.946;2022-12-18T16:51:01;0.70;99.90
25092;DHT22;13082;52.374;4.946;2022-12-18T16:53:27;0.60;99.90
25092;DHT22;13082;52.374;4.946;2022-12-18T16:55:55;0.70;99.90
25092;DHT22;13082;52.374;4.946;2022-12-18T16:58:21;0.70;99.90
25092;DHT22;13082;52.374;4.946;2022-12-18T17:00:46;0.70;99.90
25092;DHT22;13082;52.374;4.946;2022-12-18T17:03:12;0.70;99.90
25092;DHT22;13082;52.374;4.946;2022-12-18T17:05:38;0.70;99.90
25092;DHT22;13082;52.374;4.946;2022-12-18T17:08:04;0.70;99.90
25092;DHT22;13082;52.374;4.946;2022-12-18T17:10:30;0.70;99.90
25092;DHT22;13082;52.374;4.946;2022-12-18T17:12:58;0.70;99.90
25092;DHT22;13082;52.374;4.946;2022-12-18T17:15:25;0.80;99.90
25092;DHT22;13082;52.374;4.946;2022-12-18T17:17:56;0.80;99.90
25092;DHT22;13082;52.374;4.946;2022-12-18T17:20:22;0.70;99.90
25092;DHT22;13082;52.374;4.946;2022-12-18T17:22:48;0.70;99.90
25092;DHT22;13082;52.374;4.946;2022-12-18T17:25:14;0.70;99.90
25092;DHT22;13082;52.374;4.946;2022-12-18T17:27:39;0.70;99.90
25092;DHT22;13082;52.374;4.946;2022-12-18T17:30:05;0.80;99.90
25092;DHT22;13082;52.374;4.946;2022-12-18T17:32:31;0.80;99.90
25092;DHT22;13082;52.374;4.946;2022-12-18T17:35:00;0.80;99.90
25092;DHT22;13082;52.374;4.946;2022-12-18T17:37:30;0.80;99.90
25092;DHT22;13082;52.374;4.946;2022-12-18T17:39:59;0.80;99.90
25092;DHT22;13082;52.374;4.946;2022-12-18T17:42:28;0.80;99.90
25092;DHT22;13082;52.374;4.946;2022-12-18T17:45:04;0.80;99.90
25092;DHT22;13082;52.374;4.946;2022-12-18T17:47:32;0.90;99.90
25092;DHT22;13082;52.374;4.946;2022-12-18T17:49:58;0.80;99.90
25092;DHT22;13082;52.374;4.946;2022-12-18T17:52:23;0.90;99.90
25092;DHT22;13082;52.374;4.946;2022-12-18T17:57:34;0.80;99.90
25092;DHT22;13082;52.374;4.946;2022-12-18T18:00:01;0.90;99.90
25092;DHT22;13082;52.374;4.946;2022-12-18T18:02:28;0.90;99.90